sensor_id;sensor_type;location;lat;lon;timestamp;pressure;altitude;pressure_sealevel;temperature;humidity
5126;BME280;63008;53.112;8.896;2023-08-24T00:01:41;101779.06;;;18.25;100.00
5126;BME280;63008;53.112;8.896;2023-08-24T00:03:45;101781.00;;;18.24;100.00
5126;BME280;63008;53.112;8.896;2023-08-24T00:05:47;101776.97;;;18.22;100.00
5126;BME280;63008;53.112;8.896;2023-08-24T00:07:48;101773.28;;;18.18;100.00
5126;BME280;63008;53.112;8.896;2023-08-24T00:09:52;101780.41;;;18.15;100.00
5126;BME280;63008;53.112;8.896;2023-08-24T00:11:53;101777.97;;;18.14;100.00
5126;BME280;63008;53.112;8.896;2023-08-24T00:13:54;101772.25;;;18.07;100.00
5126;BME280;63008;53.112;8.896;2023-08-24T00:15:55;101779.41;;;18.08;100.00
5126;BME280;63008;53.112;8.896;2023-08-24T00:17:56;101777.25;;;18.01;100.00
5126;BME280;63008;53.112;8.896;2023-08-24T00:19:57;101784.78;;;18.01;100.00
5126;BME280;63008;53.112;8.896;2023-08-24T00:21:58;101779.66;;;18.03;100.00
5126;BME280;63008;53.112;8.896;2023-08-24T00:23:59;101780.81;;;18.02;100.00
5126;BME280;63008;53.112;8.896;2023-08-24T00:26:01;101775.19;;;17.98;100.00
5126;BME280;63008;53.112;8.896;2023-08-24T00:28:02;101768.81;;;17.98;100.00
5126;BME280;63008;53.112;8.896;2023-08-24T00:30:04;101781.22;;;18.00;100.00
5126;BME280;63008;53.112;8.896;2023-08-24T00:32:07;101777.59;;;18.00;100.00
5126;BME280;63008;53.112;8.896;2023-08-24T00:34:09;101773.66;;;18.01;100.00
5126;BME280;63008;53.112;8.896;2023-08-24T00:36:10;101779.16;;;17.97;100.00
5126;BME280;63008;53.112;8.896;2023-08-24T00:38:11;101775.44;;;17.93;100.00
5126;BME280;63008;53.112;8.896;2023-08-24T00:40:12;101772.50;;;17.86;100.00
5126;BME280;63008;53.112;8.896;2023-08-24T00:42:13;101772.66;;;17.78;100.00
5126;BME280;63008;53.112;8.896;2023-08-24T00:44:15;101777.34;;;17.74;100.00
5126;BME280;63008;53.112;8.896;2023-08-24T00:46:17;101765.03;;;17.59;100.00
5126;BME280;63008;53.112;8.896;2023-08-24T00:48:20;101769.41;;;17.60;100.00
5126;BME280;63008;53.112;8.896;2023-08-24T00:50:26;101768.63;;;17.60;100.00
5126;BME280;63008;53.112;8.896;2023-08-24T00:52:28;101765.50;;;17.61;100.00
5126;BME280;63008;53.112;8.896;2023-08-24T00:54:31;101766.19;;;17.58;100.00
5126;BME280;63008;53.112;8.896;2023-08-24T00:56:32;101773.84;;;17.61;100.00
5126;BME280;63008;53.112;8.896;2023-08-24T00:58:34;101777.84;;;17.64;100.00
5126;BME280;63008;53.112;8.896;2023-08-24T01:00:35;101771.06;;;17.61;100.00
5126;BME280;63008;53.112;8.896;2023-08-24T01:02:39;101772.91;;;17.57;100.00
5126;BME280;63008;53.112;8.896;2023-08-24T01:04:43;101771.22;;;17.53;100.00
5126;BME280;63008;53.112;8.896;2023-08-24T01:06:44;101772.00;;;17.53;100.00
5126;BME280;63008;53.112;8.896;2023-08-24T01:08:45;101770.28;;;17.49;100.00
5126;BME280;63008;53.112;8.896;2023-08-24T01:10:59;101766.72;;;17.48;100.00
5126;BME280;63008;53.112;8.896;2023-08-24T01:13:10;101777.16;;;17.39;100.00
5126;BME280;63008;53.112;8.896;2023-08-24T01:17:39;101770.22;;;17.33;100.00
5126;BME280;63008;53.112;8.896;2023-08-24T01:19:44;101773.50;;;17.35;100.00
5126;BME280;63008;53.112;8.896;2023-08-24T01:21:45;101771.16;;;17.37;100.00
5126;BME280;63008;53.112;8.896;2023-08-24T01:24:12;101772.06;;;17.41;100.00
5126;BME280;63008;53.112;8.896;2023-08-24T01:26:17;101769.28;;;17.41;100.00
5126;BME280;63008;53.112;8.896;2023-08-24T01:28:20;101768.59;;;17.44;100.00
5126;BME280;63008;53.112;8.896;2023-08-24T01:30:22;101772.06;;;17.41;100.00
5126;BME280;63008;53.112;8.896;2023-08-24T01:32:23;101759.78;;;17.42;100.00
5126;BME280;63008;53.112;8.896;2023-08-24T01:34:24;101767.47;;;17.33;100.00
5126;BME280;63008;53.112;8.896;2023-08-24T01:36:25;101758.56;;;17.28;100.00
5126;BME280;63008;53.112;8.896;2023-08-24T01:38:26;101759.63;;;17.23;100.00
5126;BME280;63008;53.112;8.896;2023-08-24T01:42:52;101767.94;;;17.23;100.00
5126;BME280;63008;53.112;8.896;2023-08-24T01:44:56;101758.38;;;17.21;100.00
5126;BME280;63008;53.112;8.896;2023-08-24T01:47:01;101764.28;;;17.19;100.00
5126;BME280;63008;53.112;8.896;2023-08-24T01:49:05;101763.38;;;17.15;100.00
5126;BME280;63008;53.112;8.896;2023-08-24T01:51:07;101765.69;;;17.13;100.00
5126;BME280;63008;53.112;8.896;2023-08-24T01:53:10;101765.31;;;17.15;100.00
5126;BME280;63008;53.112;8.896;2023-08-24T01:55:11;101767.19;;;17.11;100.00
5126;BME280;63008;53.112;8.896;2023-08-24T01:57:12;101759.31;;;17.13;100.00
5126;BME280;63008;53.112;8.896;2023-08-24T01:59:13;101760.94;;;17.14;100.00
5126;BME280;63008;53.112;8.896;2023-08-24T02:01:14;101756.91;;;17.11;100.00
5126;BME280;63008;53.112;8.896;2023-08-24T02:03:16;101757.97;;;17.07;100.00
5126;BME280;63008;53.112;8.896;2023-08-24T02:05:17;101755.09;;;17.03;100.00
5126;BME280;63008;53.112;8.896;2023-08-24T02:07:18;101753.72;;;16.97;100.00
5126;BME280;63008;53.112;8.896;2023-08-24T02:09:19;101752.00;;;16.93;100.00
5126;BME280;63008;53.112;8.896;2023-08-24T02:11:20;101752.84;;;16.93;100.00
5126;BME280;63008;53.112;8.896;2023-08-24T02:13:20;101745.22;;;16.90;100.00
5126;BME280;63008;53.112;8.896;2023-08-24T02:15:22;101748.66;;;16.87;100.00
5126;BME280;63008;53.112;8.896;2023-08-24T02:17:23;101742.22;;;16.83;100.00
5126;BME280;63008;53.112;8.896;2023-08-24T02:19:24;101742.44;;;16.90;100.00
5126;BME280;63008;53.112;8.896;2023-08-24T02:21:25;101743.22;;;16.91;100.00
5126;BME280;63008;53.112;8.896;2023-08-24T02:23:26;101747.63;;;16.92;100.00
5126;BME280;63008;53.112;8.896;2023-08-24T02:25:27;101739.66;;;16.90;100.00
5126;BME280;63008;53.112;8.896;2023-08-24T02:27:29;101737.69;;;16.91;100.00
5126;BME280;63008;53.112;8.896;2023-08-24T02:29:30;101737.13;;;16.85;100.00
5126;BME280;63008;53.112;8.896;2023-08-24T02:31:31;101734.34;;;16.85;100.00
5126;BME280;63008;53.112;8.896;2023-08-24T02:33:32;101732.75;;;16.84;100.00
5126;BME280;63008;53.112;8.896;2023-08-24T02:35:33;101741.50;;;16.86;100.00
5126;BME280;63008;53.112;8.896;2023-08-24T02:37:34;101735.06;;;16.82;100.00
5126;BME280;63008;53.112;8.896;2023-08-24T02:39:35;101740.59;;;16.82;100.00
5126;BME280;63008;53.112;8.896;2023-08-24T02:41:36;101736.66;;;16.83;100.00
5126;BME280;63008;53.112;8.896;2023-08-24T02:43:37;101728.34;;;16.83;100.00
5126;BME280;63008;53.112;8.896;2023-08-24T02:45:38;101730.22;;;16.79;100.00
5126;BME280;63008;53.112;8.896;2023-08-24T02:47:39;101729.31;;;16.75;100.00
5126;BME280;63008;53.112;8.896;2023-08-24T02:49:40;101726.88;;;16.74;100.00
5126;BME280;63008;53.112;8.896;2023-08-24T02:51:41;101723.91;;;16.67;100.00
5126;BME280;63008;53.112;8.896;2023-08-24T02:53:42;101727.47;;;16.67;100.00
5126;BME280;63008;53.112;8.896;2023-08-24T02:55:43;101726.44;;;16.72;100.00
5126;BME280;63008;53.112;8.896;2023-08-24T02:57:44;101719.53;;;16.66;100.00
5126;BME280;63008;53.112;8.896;2023-08-24T02:59:45;101718.00;;;16.68;100.00
5126;BME280;63008;53.112;8.896;2023-08-24T03:01:46;101713.34;;;16.72;100.00
5126;BME280;63008;53.112;8.896;2023-08-24T03:03:47;101717.41;;;16.75;100.00
5126;BME280;63008;53.112;8.896;2023-08-24T03:07:53;101699.03;;;16.70;100.00
5126;BME280;63008;53.112;8.896;2023-08-24T03:09:54;101696.50;;;16.77;100.00
5126;BME280;63008;53.112;8.896;2023-08-24T03:11:55;101691.84;;;16.81;100.00
5126;BME280;63008;53.112;8.896;2023-08-24T03:13:56;101690.94;;;16.77;100.00
5126;BME280;63008;53.112;8.896;2023-08-24T03:15:57;101691.50;;;16.83;100.00
5126;BME280;63008;53.112;8.896;2023-08-24T03:18:03;101691.13;;;16.84;100.00
5126;BME280;63008;53.112;8.896;2023-08-24T03:20:05;101687.56;;;16.84;100.00
5126;BME280;63008;53.112;8.896;2023-08-24T03:22:06;101692.31;;;16.83;100.00
5126;BME280;63008;53.112;8.896;2023-08-24T03:24:07;101691.97;;;16.85;100.00
5126;BME280;63008;53.112;8.896;2023-08-24T03:26:08;101689.53;;;16.83;100.00
5126;BME280;63008;53.112;8.896;2023-08-24T03:28:09;101693.56;;;16.86;100.00
5126;BME280;63008;53.112;8.896;2023-08-24T03:30:11;101688.94;;;16.90;100.00
5126;BME280;63008;53.112;8.896;2023-08-24T03:32:12;101687.78;;;16.91;100.00
5126;BME280;63008;53.112;8.896;2023-08-24T03:34:13;101686.50;;;16.88;100.00
5126;BME280;63008;53.112;8.896;2023-08-24T03:36:14;101681.31;;;16.87;100.00
5126;BME280;63008;53.112;8.896;2023-08-24T03:38:15;101680.59;;;16.90;100.00
5126;BME280;63008;53.112;8.896;2023-08-24T03:40:16;101681.88;;;16.92;100.00
5126;BME280;63008;53.112;8.896;2023-08-24T03:42:17;101688.31;;;16.96;100.00
5126;BME280;63008;53.112;8.896;2023-08-24T03:44:18;101690.19;;;16.92;100.00
5126;BME280;63008;53.112;8.896;2023-08-24T03:46:19;101694.94;;;16.92;100.00
5126;BME280;63008;53.112;8.896;2023-08-24T03:48:20;101704.06;;;16.92;100.00
5126;BME280;63008;53.112;8.896;2023-08-24T03:50:21;101711.31;;;16.97;100.00
5126;BME280;63008;53.112;8.896;2023-08-24T03:52:23;101706.13;;;16.95;100.00
5126;BME280;63008;53.112;8.896;2023-08-24T03:54:24;101711.31;;;16.97;100.00
5126;BME280;63008;53.112;8.896;2023-08-24T03:56:25;101712.25;;;17.01;100.00
5126;BME280;63008;53.112;8.896;2023-08-24T03:58:26;101713.94;;;17.05;100.00
5126;BME280;63008;53.112;8.896;2023-08-24T04:00:26;101716.69;;;17.05;100.00
5126;BME280;63008;53.112;8.896;2023-08-24T04:02:27;101717.88;;;17.04;100.00
5126;BME280;63008;53.112;8.896;2023-08-24T04:04:30;101720.72;;;16.92;100.00
5126;BME280;63008;53.112;8.896;2023-08-24T04:06:31;101712.13;;;16.97;100.00
5126;BME280;63008;53.112;8.896;2023-08-24T04:08:32;101716.50;;;16.98;100.00
5126;BME280;63008;53.112;8.896;2023-08-24T04:10:33;101714.09;;;16.97;100.00
5126;BME280;63008;53.112;8.896;2023-08-24T04:12:34;101714.91;;;16.97;100.00
5126;BME280;63008;53.112;8.896;2023-08-24T04:14:35;101720.44;;;16.97;100.00
5126;BME280;63008;53.112;8.896;2023-08-24T04:16:36;101724.66;;;16.91;100.00
5126;BME280;63008;53.112;8.896;2023-08-24T04:18:37;101717.13;;;16.92;100.00
5126;BME280;63008;53.112;8.896;2023-08-24T04:20:38;101718.84;;;16.96;100.00
5126;BME280;63008;53.112;8.896;2023-08-24T04:22:39;101706.78;;;17.04;100.00
5126;BME280;63008;53.112;8.896;2023-08-24T04:24:40;101713.59;;;17.07;100.00
5126;BME280;63008;53.112;8.896;2023-08-24T04:26:41;101715.34;;;16.99;100.00
5126;BME280;63008;53.112;8.896;2023-08-24T04:28:42;101718.13;;;16.99;100.00
5126;BME280;63008;53.112;8.896;2023-08-24T04:30:54;101710.63;;;17.00;100.00
5126;BME280;63008;53.112;8.896;2023-08-24T04:32:56;101713.94;;;17.05;100.00
5126;BME280;63008;53.112;8.896;2023-08-24T04:34:57;101712.75;;;17.06;100.00
5126;BME280;63008;53.112;8.896;2023-08-24T04:36:58;101719.47;;;17.05;100.00
5126;BME280;63008;53.112;8.896;2023-08-24T04:38:59;101724.56;;;17.03;100.00
5126;BME280;63008;53.112;8.896;2023-08-24T04:41:00;101723.94;;;16.94;100.00
5126;BME280;63008;53.112;8.896;2023-08-24T04:43:01;101731.50;;;16.82;100.00
5126;BME280;63008;53.112;8.896;2023-08-24T04:45:02;101730.22;;;16.79;100.00
5126;BME280;63008;53.112;8.896;2023-08-24T04:47:03;101726.59;;;16.91;100.00
5126;BME280;63008;53.112;8.896;2023-08-24T04:49:04;101714.63;;;17.02;100.00
5126;BME280;63008;53.112;8.896;2023-08-24T04:51:05;101706.13;;;16.95;100.00
5126;BME280;63008;53.112;8.896;2023-08-24T04:53:06;101708.91;;;16.95;100.00
5126;BME280;63008;53.112;8.896;2023-08-24T04:55:07;101708.66;;;17.00;100.00
5126;BME280;63008;53.112;8.896;2023-08-24T04:57:09;101701.81;;;16.98;100.00
5126;BME280;63008;53.112;8.896;2023-08-24T04:59:10;101711.88;;;17.02;100.00
5126;BME280;63008;53.112;8.896;2023-08-24T05:01:11;101709.09;;;17.02;100.00
5126;BME280;63008;53.112;8.896;2023-08-24T05:03:12;101711.16;;;17.05;100.00
5126;BME280;63008;53.112;8.896;2023-08-24T05:05:14;101708.38;;;17.05;100.00
5126;BME280;63008;53.112;8.896;2023-08-24T05:07:15;101711.97;;;17.06;100.00
5126;BME280;63008;53.112;8.896;2023-08-24T05:09:16;101708.94;;;17.11;100.00
5126;BME280;63008;53.112;8.896;2023-08-24T05:11:19;101710.06;;;17.22;100.00
5126;BME280;63008;53.112;8.896;2023-08-24T05:13:20;101710.66;;;17.15;100.00
5126;BME280;63008;53.112;8.896;2023-08-24T05:15:21;101710.91;;;17.10;100.00
5126;BME280;63008;53.112;8.896;2023-08-24T05:17:22;101712.09;;;17.09;100.00
5126;BME280;63008;53.112;8.896;2023-08-24T05:19:25;101717.06;;;17.04;100.00
5126;BME280;63008;53.112;8.896;2023-08-24T05:21:26;101718.69;;;17.05;100.00
5126;BME280;63008;53.112;8.896;2023-08-24T05:23:27;101722.69;;;17.07;100.00
5126;BME280;63008;53.112;8.896;2023-08-24T05:25:28;101725.16;;;17.24;100.00
5126;BME280;63008;53.112;8.896;2023-08-24T05:27:29;101715.69;;;17.25;100.00
5126;BME280;63008;53.112;8.896;2023-08-24T05:29:30;101724.09;;;17.29;100.00
5126;BME280;63008;53.112;8.896;2023-08-24T05:31:31;101720.53;;;17.28;100.00
5126;BME280;63008;53.112;8.896;2023-08-24T05:33:32;101735.03;;;17.22;100.00
5126;BME280;63008;53.112;8.896;2023-08-24T05:35:33;101736.53;;;17.19;100.00
5126;BME280;63008;53.112;8.896;2023-08-24T05:37:35;101728.03;;;17.28;100.00
5126;BME280;63008;53.112;8.896;2023-08-24T05:39:36;101727.19;;;17.39;100.00
5126;BME280;63008;53.112;8.896;2023-08-24T05:41:36;101727.31;;;17.43;100.00
5126;BME280;63008;53.112;8.896;2023-08-24T05:43:38;101723.03;;;17.45;100.00
5126;BME280;63008;53.112;8.896;2023-08-24T05:45:39;101712.19;;;17.56;100.00
5126;BME280;63008;53.112;8.896;2023-08-24T05:47:41;101709.41;;;17.71;100.00
5126;BME280;63008;53.112;8.896;2023-08-24T05:49:42;101708.06;;;17.81;100.00
5126;BME280;63008;53.112;8.896;2023-08-24T05:51:43;101715.78;;;17.87;100.00
5126;BME280;63008;53.112;8.896;2023-08-24T05:53:44;101705.50;;;17.88;100.00
5126;BME280;63008;53.112;8.896;2023-08-24T05:55:45;101710.13;;;17.84;100.00
5126;BME280;63008;53.112;8.896;2023-08-24T05:57:46;101714.00;;;17.79;100.00
5126;BME280;63008;53.112;8.896;2023-08-24T05:59:47;101724.66;;;17.62;100.00
5126;BME280;63008;53.112;8.896;2023-08-24T06:01:48;101716.75;;;17.64;100.00
5126;BME280;63008;53.112;8.896;2023-08-24T06:03:49;101720.69;;;17.63;100.00
5126;BME280;63008;53.112;8.896;2023-08-24T06:05:50;101708.88;;;17.66;100.00
5126;BME280;63008;53.112;8.896;2023-08-24T06:07:51;101705.66;;;17.64;100.00
5126;BME280;63008;53.112;8.896;2023-08-24T06:09:53;101699.56;;;17.58;100.00
5126;BME280;63008;53.112;8.896;2023-08-24T06:11:54;101705.81;;;17.40;100.00
5126;BME280;63008;53.112;8.896;2023-08-24T06:13:55;101696.22;;;17.37;100.00
5126;BME280;63008;53.112;8.896;2023-08-24T06:15:56;101695.72;;;17.47;100.00
5126;BME280;63008;53.112;8.896;2023-08-24T06:17:57;101692.03;;;17.43;100.00
5126;BME280;63008;53.112;8.896;2023-08-24T06:19:59;101696.72;;;17.55;100.00
5126;BME280;63008;53.112;8.896;2023-08-24T06:22:00;101697.22;;;17.60;100.00
5126;BME280;63008;53.112;8.896;2023-08-24T06:24:01;101697.75;;;17.66;100.00
5126;BME280;63008;53.112;8.896;2023-08-24T06:26:02;101692.31;;;17.69;100.00
5126;BME280;63008;53.112;8.896;2023-08-24T06:28:05;101698.22;;;17.83;100.00
5126;BME280;63008;53.112;8.896;2023-08-24T06:30:06;101690.88;;;17.91;100.00
5126;BME280;63008;53.112;8.896;2023-08-24T06:32:08;101695.16;;;17.88;100.00
5126;BME280;63008;53.112;8.896;2023-08-24T06:34:09;101692.38;;;17.88;100.00
5126;BME280;63008;53.112;8.896;2023-08-24T06:36:09;101697.84;;;18.00;100.00
5126;BME280;63008;53.112;8.896;2023-08-24T06:38:10;101689.97;;;18.02;100.00
5126;BME280;63008;53.112;8.896;2023-08-24T06:40:12;101686.16;;;18.10;100.00
5126;BME280;63008;53.112;8.896;2023-08-24T06:42:14;101675.06;;;18.10;100.00
5126;BME280;63008;53.112;8.896;2023-08-24T06:44:15;101677.56;;;18.15;100.00
5126;BME280;63008;53.112;8.896;2023-08-24T06:46:16;101678.00;;;18.17;100.00
5126;BME280;63008;53.112;8.896;2023-08-24T06:48:17;101673.00;;;18.23;100.00
5126;BME280;63008;53.112;8.896;2023-08-24T06:50:18;101674.13;;;18.37;100.00
5126;BME280;63008;53.112;8.896;2023-08-24T06:52:22;101683.88;;;18.47;100.00
5126;BME280;63008;53.112;8.896;2023-08-24T06:54:23;101677.72;;;18.56;100.00
5126;BME280;63008;53.112;8.896;2023-08-24T06:56:24;101682.50;;;18.56;100.00
5126;BME280;63008;53.112;8.896;2023-08-24T06:58:25;101673.94;;;18.64;100.00
5126;BME280;63008;53.112;8.896;2023-08-24T07:00:26;101678.41;;;18.69;100.00
5126;BME280;63008;53.112;8.896;2023-08-24T07:02:26;101678.13;;;18.74;100.00
5126;BME280;63008;53.112;8.896;2023-08-24T07:04:27;101670.56;;;18.74;100.00
5126;BME280;63008;53.112;8.896;2023-08-24T07:06:28;101674.97;;;18.75;100.00
5126;BME280;63008;53.112;8.896;2023-08-24T07:08:29;101671.06;;;18.80;100.00
5126;BME280;63008;53.112;8.896;2023-08-24T07:10:30;101666.91;;;18.89;100.00
5126;BME280;63008;53.112;8.896;2023-08-24T07:12:31;101672.25;;;18.98;100.00
5126;BME280;63008;53.112;8.896;2023-08-24T07:14:33;101673.94;;;19.02;100.00
5126;BME280;63008;53.112;8.896;2023-08-24T07:16:34;101673.19;;;19.05;100.00
5126;BME280;63008;53.112;8.896;2023-08-24T07:18:35;101663.97;;;19.20;100.00
5126;BME280;63008;53.112;8.896;2023-08-24T07:20:37;101655.38;;;19.29;100.00
5126;BME280;63008;53.112;8.896;2023-08-24T07:22:38;101645.78;;;19.26;100.00
5126;BME280;63008;53.112;8.896;2023-08-24T07:24:39;101639.53;;;19.33;100.00
5126;BME280;63008;53.112;8.896;2023-08-24T07:26:41;101646.47;;;19.65;100.00
5126;BME280;63008;53.112;8.896;2023-08-24T07:28:42;101643.91;;;19.79;100.00
5126;BME280;63008;53.112;8.896;2023-08-24T07:30:43;101647.97;;;19.85;100.00
5126;BME280;63008;53.112;8.896;2023-08-24T07:32:44;101644.41;;;19.84;100.00
5126;BME280;63008;53.112;8.896;2023-08-24T07:34:45;101634.88;;;19.85;100.00
5126;BME280;63008;53.112;8.896;2023-08-24T07:36:46;101636.34;;;20.02;100.00
5126;BME280;63008;53.112;8.896;2023-08-24T07:38:49;101640.84;;;20.10;100.00
5126;BME280;63008;53.112;8.896;2023-08-24T07:40:50;101642.41;;;20.07;100.00
5126;BME280;63008;53.112;8.896;2023-08-24T07:42:52;101647.69;;;20.16;99.28
5126;BME280;63008;53.112;8.896;2023-08-24T07:44:53;101643.81;;;20.24;100.00
5126;BME280;63008;53.112;8.896;2023-08-24T07:46:54;101645.41;;;20.21;99.05
5126;BME280;63008;53.112;8.896;2023-08-24T07:48:56;101638.16;;;20.17;99.91
5126;BME280;63008;53.112;8.896;2023-08-24T07:50:57;101629.44;;;20.22;100.00
5126;BME280;63008;53.112;8.896;2023-08-24T07:52:58;101630.78;;;20.31;99.41
5126;BME280;63008;53.112;8.896;2023-08-24T07:54:59;101635.63;;;20.34;100.00
5126;BME280;63008;53.112;8.896;2023-08-24T07:57:01;101630.97;;;20.45;99.13
5126;BME280;63008;53.112;8.896;2023-08-24T07:59:02;101627.53;;;20.55;99.03
5126;BME280;63008;53.112;8.896;2023-08-24T08:01:03;101628.44;;;20.62;99.04
5126;BME280;63008;53.112;8.896;2023-08-24T08:03:04;101628.03;;;20.64;97.51
5126;BME280;63008;53.112;8.896;2023-08-24T08:05:05;101625.66;;;20.66;97.77
5126;BME280;63008;53.112;8.896;2023-08-24T08:07:08;101624.53;;;20.70;96.64
5126;BME280;63008;53.112;8.896;2023-08-24T08:09:09;101623.84;;;20.80;95.26
5126;BME280;63008;53.112;8.896;2023-08-24T08:11:10;101617.09;;;20.81;92.50
5126;BME280;63008;53.112;8.896;2023-08-24T08:13:11;101614.81;;;20.90;92.03
5126;BME280;63008;53.112;8.896;2023-08-24T08:15:12;101609.28;;;20.94;93.76
5126;BME280;63008;53.112;8.896;2023-08-24T08:17:13;101610.56;;;21.03;93.80
5126;BME280;63008;53.112;8.896;2023-08-24T08:19:14;101618.59;;;21.08;92.51
5126;BME280;63008;53.112;8.896;2023-08-24T08:21:17;101611.94;;;21.20;91.97
5126;BME280;63008;53.112;8.896;2023-08-24T08:23:21;101607.94;;;21.17;91.87
5126;BME280;63008;53.112;8.896;2023-08-24T08:25:22;101611.34;;;21.04;93.34
5126;BME280;63008;53.112;8.896;2023-08-24T08:27:23;101611.56;;;21.21;93.49
5126;BME280;63008;53.112;8.896;2023-08-24T08:29:24;101614.94;;;21.41;91.94
5126;BME280;63008;53.112;8.896;2023-08-24T08:31:25;101615.03;;;21.55;89.10
5126;BME280;63008;53.112;8.896;2023-08-24T08:33:26;101614.00;;;21.66;88.98
5126;BME280;63008;53.112;8.896;2023-08-24T08:35:27;101619.66;;;21.80;88.40
5126;BME280;63008;53.112;8.896;2023-08-24T08:37:30;101625.31;;;21.87;87.10
5126;BME280;63008;53.112;8.896;2023-08-24T08:39:32;101614.25;;;22.05;88.76
5126;BME280;63008;53.112;8.896;2023-08-24T08:41:38;101622.34;;;22.20;87.16
5126;BME280;63008;53.112;8.896;2023-08-24T08:43:42;101613.88;;;22.06;85.95
5126;BME280;63008;53.112;8.896;2023-08-24T08:45:43;101609.88;;;22.07;86.14
5126;BME280;63008;53.112;8.896;2023-08-24T08:47:44;101617.56;;;22.24;84.91
5126;BME280;63008;53.112;8.896;2023-08-24T08:49:47;101618.47;;;22.38;87.80
5126;BME280;63008;53.112;8.896;2023-08-24T08:51:49;101624.81;;;22.35;77.75
5126;BME280;63008;53.112;8.896;2023-08-24T08:53:50;101623.53;;;22.23;77.83
5126;BME280;63008;53.112;8.896;2023-08-24T08:55:52;101625.97;;;22.24;79.00
5126;BME280;63008;53.112;8.896;2023-08-24T08:57:56;101625.59;;;22.29;79.52
5126;BME280;63008;53.112;8.896;2023-08-24T08:59:59;101620.41;;;22.34;80.01
5126;BME280;63008;53.112;8.896;2023-08-24T09:02:01;101621.72;;;22.51;81.77
5126;BME280;63008;53.112;8.896;2023-08-24T09:04:04;101617.34;;;22.60;78.18
5126;BME280;63008;53.112;8.896;2023-08-24T09:06:06;101619.84;;;22.83;77.61
5126;BME280;63008;53.112;8.896;2023-08-24T09:08:08;101617.97;;;23.22;73.85
5126;BME280;63008;53.112;8.896;2023-08-24T09:10:09;101615.59;;;23.38;75.04
5126;BME280;63008;53.112;8.896;2023-08-24T09:12:10;101607.59;;;23.57;71.69
5126;BME280;63008;53.112;8.896;2023-08-24T09:14:11;101617.56;;;24.11;70.21
5126;BME280;63008;53.112;8.896;2023-08-24T09:16:12;101614.66;;;24.49;72.40
5126;BME280;63008;53.112;8.896;2023-08-24T09:18:16;101616.50;;;24.90;68.93
5126;BME280;63008;53.112;8.896;2023-08-24T09:20:17;101608.81;;;25.01;70.94
5126;BME280;63008;53.112;8.896;2023-08-24T09:22:18;101592.84;;;25.46;66.90
5126;BME280;63008;53.112;8.896;2023-08-24T09:24:31;101591.50;;;25.61;66.38
5126;BME280;63008;53.112;8.896;2023-08-24T09:26:34;101598.44;;;26.33;60.70
5126;BME280;63008;53.112;8.896;2023-08-24T09:28:37;101591.91;;;26.73;62.09
5126;BME280;63008;53.112;8.896;2023-08-24T09:30:44;101586.81;;;27.21;60.65
5126;BME280;63008;53.112;8.896;2023-08-24T09:32:45;101587.50;;;27.52;55.12
5126;BME280;63008;53.112;8.896;2023-08-24T09:34:47;101583.66;;;27.16;56.13
5126;BME280;63008;53.112;8.896;2023-08-24T09:36:48;101591.13;;;26.99;56.99
5126;BME280;63008;53.112;8.896;2023-08-24T09:38:49;101588.34;;;27.75;53.50
5126;BME280;63008;53.112;8.896;2023-08-24T09:40:52;101573.38;;;27.78;52.62
5126;BME280;63008;53.112;8.896;2023-08-24T09:42:53;101572.81;;;28.06;53.37
5126;BME280;63008;53.112;8.896;2023-08-24T09:44:54;101565.00;;;27.94;52.13
5126;BME280;63008;53.112;8.896;2023-08-24T09:46:55;101562.66;;;27.66;54.67
5126;BME280;63008;53.112;8.896;2023-08-24T09:48:56;101562.38;;;27.11;58.40
5126;BME280;63008;53.112;8.896;2023-08-24T09:51:03;101547.53;;;27.34;53.15
5126;BME280;63008;53.112;8.896;2023-08-24T09:53:05;101546.47;;;26.98;55.66
5126;BME280;63008;53.112;8.896;2023-08-24T09:55:08;101546.28;;;27.12;55.73
5126;BME280;63008;53.112;8.896;2023-08-24T09:57:10;101533.25;;;26.65;59.68
5126;BME280;63008;53.112;8.896;2023-08-24T09:59:15;101526.25;;;27.03;56.13
5126;BME280;63008;53.112;8.896;2023-08-24T10:01:19;101529.91;;;27.00;62.33
5126;BME280;63008;53.112;8.896;2023-08-24T10:03:30;101529.56;;;26.38;62.40
5126;BME280;63008;53.112;8.896;2023-08-24T10:05:32;101527.34;;;26.56;61.33
5126;BME280;63008;53.112;8.896;2023-08-24T10:07:35;101520.66;;;26.43;63.85
5126;BME280;63008;53.112;8.896;2023-08-24T10:09:44;101529.19;;;26.69;62.03
5126;BME280;63008;53.112;8.896;2023-08-24T10:11:50;101516.50;;;27.34;59.95
5126;BME280;63008;53.112;8.896;2023-08-24T10:14:00;101518.56;;;27.76;59.63
5126;BME280;63008;53.112;8.896;2023-08-24T10:16:08;101517.44;;;27.70;59.35
5126;BME280;63008;53.112;8.896;2023-08-24T10:18:09;101500.81;;;27.33;58.88
5126;BME280;63008;53.112;8.896;2023-08-24T10:20:11;101503.59;;;27.79;55.04
5126;BME280;63008;53.112;8.896;2023-08-24T10:22:12;101507.16;;;28.76;50.59
5126;BME280;63008;53.112;8.896;2023-08-24T10:24:14;101509.91;;;28.44;53.61
5126;BME280;63008;53.112;8.896;2023-08-24T10:26:16;101501.72;;;27.26;58.55
5126;BME280;63008;53.112;8.896;2023-08-24T10:28:18;101501.56;;;27.79;57.17
5126;BME280;63008;53.112;8.896;2023-08-24T10:30:20;101492.69;;;27.35;57.16
5126;BME280;63008;53.112;8.896;2023-08-24T10:32:22;101498.25;;;28.42;51.74
5126;BME280;63008;53.112;8.896;2023-08-24T10:34:23;101482.81;;;28.47;55.32
5126;BME280;63008;53.112;8.896;2023-08-24T10:36:25;101492.81;;;28.67;55.82
5126;BME280;63008;53.112;8.896;2023-08-24T10:38:29;101486.16;;;28.03;57.42
5126;BME280;63008;53.112;8.896;2023-08-24T10:40:33;101482.81;;;28.98;53.12
5126;BME280;63008;53.112;8.896;2023-08-24T10:42:44;101474.53;;;28.72;52.87
5126;BME280;63008;53.112;8.896;2023-08-24T10:44:47;101469.78;;;28.14;54.63
5126;BME280;63008;53.112;8.896;2023-08-24T10:47:19;101464.94;;;27.95;59.76